sensor_id;sensor_type;location;lat;lon;timestamp;temperature;humidity
47576;DHT22;33304;52.456;13.328;2023-08-01T00:01:44;17.90;58.40
47576;DHT22;33304;52.456;13.328;2023-08-01T00:04:11;17.90;60.10
47576;DHT22;33304;52.456;13.328;2023-08-01T00:06:38;17.90;61.60
47576;DHT22;33304;52.456;13.328;2023-08-01T00:09:05;17.90;62.50
47576;DHT22;33304;52.456;13.328;2023-08-01T00:11:32;17.90;62.80
47576;DHT22;33304;52.456;13.328;2023-08-01T00:14:00;17.80;64.20
47576;DHT22;33304;52.456;13.328;2023-08-01T00:16:28;17.70;67.50
47576;DHT22;33304;52.456;13.328;2023-08-01T00:18:55;17.70;69.80
47576;DHT22;33304;52.456;13.328;2023-08-01T00:21:22;17.50;72.90
47576;DHT22;33304;52.456;13.328;2023-08-01T00:23:49;17.50;78.10
47576;DHT22;33304;52.456;13.328;2023-08-01T00:26:17;17.40;84.00
47576;DHT22;33304;52.456;13.328;2023-08-01T00:28:44;17.20;94.60
47576;DHT22;33304;52.456;13.328;2023-08-01T00:31:13;17.20;99.90
47576;DHT22;33304;52.456;13.328;2023-08-01T00:33:40;17.10;99.90
47576;DHT22;33304;52.456;13.328;2023-08-01T00:36:07;17.00;99.90
47576;DHT22;33304;52.456;13.328;2023-08-01T00:38:37;16.90;99.90
47576;DHT22;33304;52.456;13.328;2023-08-01T00:41:04;16.90;99.90
47576;DHT22;33304;52.456;13.328;2023-08-01T00:43:31;16.80;99.90
47576;DHT22;33304;52.456;13.328;2023-08-01T00:45:59;16.80;99.90
47576;DHT22;33304;52.456;13.328;2023-08-01T00:48:28;16.70;99.90
47576;DHT22;33304;52.456;13.328;2023-08-01T00:50:56;16.70;99.90
47576;DHT22;33304;52.456;13.328;2023-08-01T00:53:24;16.70;99.90
47576;DHT22;33304;52.456;13.328;2023-08-01T00:55:51;16.70;99.90
47576;DHT22;33304;52.456;13.328;2023-08-01T00:58:19;16.60;99.90
47576;DHT22;33304;52.456;13.328;2023-08-01T01:00:46;16.60;99.90
47576;DHT22;33304;52.456;13.328;2023-08-01T01:03:14;16.60;99.90
47576;DHT22;33304;52.456;13.328;2023-08-01T01:05:53;16.70;99.90
47576;DHT22;33304;52.456;13.328;2023-08-01T01:08:23;16.70;99.90
47576;DHT22;33304;52.456;13.328;2023-08-01T01:10:50;16.60;99.90
47576;DHT22;33304;52.456;13.328;2023-08-01T01:13:17;16.80;99.90
47576;DHT22;33304;52.456;13.328;2023-08-01T01:15:44;16.70;99.90
47576;DHT22;33304;52.456;13.328;2023-08-01T01:18:11;16.80;99.90
47576;DHT22;33304;52.456;13.328;2023-08-01T01:20:40;16.70;99.90
47576;DHT22;33304;52.456;13.328;2023-08-01T01:23:09;16.70;99.90
47576;DHT22;33304;52.456;13.328;2023-08-01T01:25:38;16.70;99.90
47576;DHT22;33304;52.456;13.328;2023-08-01T01:28:06;16.80;99.90
47576;DHT22;33304;52.456;13.328;2023-08-01T01:30:34;16.70;99.90
47576;DHT22;33304;52.456;13.328;2023-08-01T01:33:03;16.70;99.90
47576;DHT22;33304;52.456;13.328;2023-08-01T01:35:33;16.80;99.90
47576;DHT22;33304;52.456;13.328;2023-08-01T01:38:01;16.80;99.90
47576;DHT22;33304;52.456;13.328;2023-08-01T01:40:29;16.80;99.90
47576;DHT22;33304;52.456;13.328;2023-08-01T01:42:57;16.80;99.90
47576;DHT22;33304;52.456;13.328;2023-08-01T01:45:24;16.80;99.90
47576;DHT22;33304;52.456;13.328;2023-08-01T01:47:51;16.80;99.90
47576;DHT22;33304;52.456;13.328;2023-08-01T01:50:18;16.80;99.90
47576;DHT22;33304;52.456;13.328;2023-08-01T01:52:46;16.80;99.90
47576;DHT22;33304;52.456;13.328;2023-08-01T01:55:14;16.70;99.90
47576;DHT22;33304;52.456;13.328;2023-08-01T01:57:42;16.70;99.90
47576;DHT22;33304;52.456;13.328;2023-08-01T02:00:10;16.70;99.90
47576;DHT22;33304;52.456;13.328;2023-08-01T02:02:40;16.90;99.90
47576;DHT22;33304;52.456;13.328;2023-08-01T02:05:07;16.80;99.90
47576;DHT22;33304;52.456;13.328;2023-08-01T02:07:34;16.70;99.90
47576;DHT22;33304;52.456;13.328;2023-08-01T02:10:02;16.80;99.90
47576;DHT22;33304;52.456;13.328;2023-08-01T02:12:33;16.80;99.90
47576;DHT22;33304;52.456;13.328;2023-08-01T02:15:02;16.80;99.90
47576;DHT22;33304;52.456;13.328;2023-08-01T02:17:29;16.80;99.90
47576;DHT22;33304;52.456;13.328;2023-08-01T02:19:56;16.80;99.90
47576;DHT22;33304;52.456;13.328;2023-08-01T02:22:24;16.80;99.90
47576;DHT22;33304;52.456;13.328;2023-08-01T02:24:51;16.80;99.90
47576;DHT22;33304;52.456;13.328;2023-08-01T02:27:19;16.80;99.90
47576;DHT22;33304;52.456;13.328;2023-08-01T02:29:47;16.80;99.90
47576;DHT22;33304;52.456;13.328;2023-08-01T02:32:15;16.80;99.90
47576;DHT22;33304;52.456;13.328;2023-08-01T02:34:43;16.80;99.90
47576;DHT22;33304;52.456;13.328;2023-08-01T02:37:10;16.70;99.90
47576;DHT22;33304;52.456;13.328;2023-08-01T02:39:37;16.70;99.90
47576;DHT22;33304;52.456;13.328;2023-08-01T02:42:04;16.80;99.90
47576;DHT22;33304;52.456;13.328;2023-08-01T02:44:31;16.80;99.90
47576;DHT22;33304;52.456;13.328;2023-08-01T02:47:00;16.80;99.90
47576;DHT22;33304;52.456;13.328;2023-08-01T02:49:27;16.80;99.90
47576;DHT22;33304;52.456;13.328;2023-08-01T02:51:54;16.80;99.90
47576;DHT22;33304;52.456;13.328;2023-08-01T02:54:21;16.80;99.90
47576;DHT22;33304;52.456;13.328;2023-08-01T02:56:48;16.80;99.90
47576;DHT22;33304;52.456;13.328;2023-08-01T02:59:15;16.80;99.90
47576;DHT22;33304;52.456;13.328;2023-08-01T03:01:44;16.80;99.90
47576;DHT22;33304;52.456;13.328;2023-08-01T03:04:12;16.70;99.90
47576;DHT22;33304;52.456;13.328;2023-08-01T03:06:40;16.80;99.90
47576;DHT22;33304;52.456;13.328;2023-08-01T03:09:07;16.80;99.90
47576;DHT22;33304;52.456;13.328;2023-08-01T03:11:35;16.80;99.90
47576;DHT22;33304;52.456;13.328;2023-08-01T03:14:03;16.80;99.90
47576;DHT22;33304;52.456;13.328;2023-08-01T03:16:31;16.80;99.90
47576;DHT22;33304;52.456;13.328;2023-08-01T03:18:58;16.80;99.90
47576;DHT22;33304;52.456;13.328;2023-08-01T03:21:33;16.80;99.90
47576;DHT22;33304;52.456;13.328;2023-08-01T03:24:01;16.80;99.90
47576;DHT22;33304;52.456;13.328;2023-08-01T03:26:28;16.80;99.90
47576;DHT22;33304;52.456;13.328;2023-08-01T03:28:55;16.80;99.90
47576;DHT22;33304;52.456;13.328;2023-08-01T03:31:23;16.80;99.90
47576;DHT22;33304;52.456;13.328;2023-08-01T03:33:50;16.80;99.90
47576;DHT22;33304;52.456;13.328;2023-08-01T03:36:17;16.80;99.90
47576;DHT22;33304;52.456;13.328;2023-08-01T03:38:46;16.80;99.90
47576;DHT22;33304;52.456;13.328;2023-08-01T03:41:13;16.80;99.90
47576;DHT22;33304;52.456;13.328;2023-08-01T03:43:41;16.70;99.90
47576;DHT22;33304;52.456;13.328;2023-08-01T03:46:08;16.80;99.90
47576;DHT22;33304;52.456;13.328;2023-08-01T03:48:35;16.80;99.90
47576;DHT22;33304;52.456;13.328;2023-08-01T03:51:02;16.80;99.90
47576;DHT22;33304;52.456;13.328;2023-08-01T03:53:30;16.80;99.90
47576;DHT22;33304;52.456;13.328;2023-08-01T03:55:58;16.90;99.90
47576;DHT22;33304;52.456;13.328;2023-08-01T03:58:25;16.90;99.90
47576;DHT22;33304;52.456;13.328;2023-08-01T04:00:52;16.90;99.90
47576;DHT22;33304;52.456;13.328;2023-08-01T04:03:20;16.90;99.90
47576;DHT22;33304;52.456;13.328;2023-08-01T04:05:47;17.00;99.90
47576;DHT22;33304;52.456;13.328;2023-08-01T04:08:14;17.00;99.90
47576;DHT22;33304;52.456;13.328;2023-08-01T04:10:41;17.00;99.90
47576;DHT22;33304;52.456;13.328;2023-08-01T04:13:10;16.90;99.90
47576;DHT22;33304;52.456;13.328;2023-08-01T04:15:37;17.00;99.90
47576;DHT22;33304;52.456;13.328;2023-08-01T04:18:04;17.00;99.90
47576;DHT22;33304;52.456;13.328;2023-08-01T04:20:31;17.00;99.90
47576;DHT22;33304;52.456;13.328;2023-08-01T04:22:58;17.00;99.90
47576;DHT22;33304;52.456;13.328;2023-08-01T04:25:27;17.10;99.90
47576;DHT22;33304;52.456;13.328;2023-08-01T04:27:54;17.10;99.90
47576;DHT22;33304;52.456;13.328;2023-08-01T04:30:22;17.10;99.90
47576;DHT22;33304;52.456;13.328;2023-08-01T04:32:49;17.10;99.90
47576;DHT22;33304;52.456;13.328;2023-08-01T04:35:17;17.10;99.90
47576;DHT22;33304;52.456;13.328;2023-08-01T04:37:44;17.10;99.90
47576;DHT22;33304;52.456;13.328;2023-08-01T04:40:11;17.20;99.90
47576;DHT22;33304;52.456;13.328;2023-08-01T04:42:38;17.30;99.90
47576;DHT22;33304;52.456;13.328;2023-08-01T04:45:06;17.20;99.90
47576;DHT22;33304;52.456;13.328;2023-08-01T04:47:35;17.30;99.90
47576;DHT22;33304;52.456;13.328;2023-08-01T04:50:03;17.20;99.90
47576;DHT22;33304;52.456;13.328;2023-08-01T04:52:30;17.20;99.90
47576;DHT22;33304;52.456;13.328;2023-08-01T04:54:57;17.00;99.90
47576;DHT22;33304;52.456;13.328;2023-08-01T04:57:24;17.10;99.90
47576;DHT22;33304;52.456;13.328;2023-08-01T04:59:51;17.00;99.90
47576;DHT22;33304;52.456;13.328;2023-08-01T05:02:18;17.10;99.90
47576;DHT22;33304;52.456;13.328;2023-08-01T05:04:46;17.10;99.90
47576;DHT22;33304;52.456;13.328;2023-08-01T05:07:13;17.20;99.90
47576;DHT22;33304;52.456;13.328;2023-08-01T05:09:41;17.20;99.90
47576;DHT22;33304;52.456;13.328;2023-08-01T05:12:08;17.10;99.90
47576;DHT22;33304;52.456;13.328;2023-08-01T05:14:35;17.20;99.90
47576;DHT22;33304;52.456;13.328;2023-08-01T05:17:03;17.10;99.90
47576;DHT22;33304;52.456;13.328;2023-08-01T05:19:30;17.10;99.90
47576;DHT22;33304;52.456;13.328;2023-08-01T05:21:58;17.10;99.90
47576;DHT22;33304;52.456;13.328;2023-08-01T05:24:25;17.20;99.90
47576;DHT22;33304;52.456;13.328;2023-08-01T05:26:52;17.20;99.90
47576;DHT22;33304;52.456;13.328;2023-08-01T05:29:19;17.30;99.90
47576;DHT22;33304;52.456;13.328;2023-08-01T05:31:46;17.40;99.90
47576;DHT22;33304;52.456;13.328;2023-08-01T05:34:14;17.40;99.90
47576;DHT22;33304;52.456;13.328;2023-08-01T05:36:41;17.40;99.90
47576;DHT22;33304;52.456;13.328;2023-08-01T05:39:09;17.40;99.90
47576;DHT22;33304;52.456;13.328;2023-08-01T05:41:36;17.50;99.90
47576;DHT22;33304;52.456;13.328;2023-08-01T05:44:04;17.40;99.90
47576;DHT22;33304;52.456;13.328;2023-08-01T05:46:31;17.50;99.90
47576;DHT22;33304;52.456;13.328;2023-08-01T05:48:58;17.40;99.90
47576;DHT22;33304;52.456;13.328;2023-08-01T05:51:25;17.50;99.90
47576;DHT22;33304;52.456;13.328;2023-08-01T05:53:52;17.40;99.90
47576;DHT22;33304;52.456;13.328;2023-08-01T05:56:21;17.40;99.90
47576;DHT22;33304;52.456;13.328;2023-08-01T05:58:48;17.40;99.90
47576;DHT22;33304;52.456;13.328;2023-08-01T06:01:16;17.40;99.90
47576;DHT22;33304;52.456;13.328;2023-08-01T06:03:43;17.50;99.90
47576;DHT22;33304;52.456;13.328;2023-08-01T06:06:10;17.40;99.90
47576;DHT22;33304;52.456;13.328;2023-08-01T06:08:37;17.40;99.90
47576;DHT22;33304;52.456;13.328;2023-08-01T06:11:04;17.50;99.90
47576;DHT22;33304;52.456;13.328;2023-08-01T06:13:33;17.50;99.90
47576;DHT22;33304;52.456;13.328;2023-08-01T06:16:00;17.70;99.90
47576;DHT22;33304;52.456;13.328;2023-08-01T06:18:27;17.60;98.40
47576;DHT22;33304;52.456;13.328;2023-08-01T06:20:54;17.50;99.30
47576;DHT22;33304;52.456;13.328;2023-08-01T06:23:21;17.50;98.90
47576;DHT22;33304;52.456;13.328;2023-08-01T06:25:48;17.60;97.60
47576;DHT22;33304;52.456;13.328;2023-08-01T06:28:15;17.60;95.30
47576;DHT22;33304;52.456;13.328;2023-08-01T06:30:44;17.60;95.80
47576;DHT22;33304;52.456;13.328;2023-08-01T06:33:11;17.60;96.50
47576;DHT22;33304;52.456;13.328;2023-08-01T06:35:39;17.60;96.30
47576;DHT22;33304;52.456;13.328;2023-08-01T06:38:06;17.60;96.10
47576;DHT22;33304;52.456;13.328;2023-08-01T06:40:33;17.60;96.50
47576;DHT22;33304;52.456;13.328;2023-08-01T06:43:00;17.70;95.10
47576;DHT22;33304;52.456;13.328;2023-08-01T06:45:27;17.70;95.60
47576;DHT22;33304;52.456;13.328;2023-08-01T06:47:55;17.70;94.70
47576;DHT22;33304;52.456;13.328;2023-08-01T06:50:22;17.60;95.40
47576;DHT22;33304;52.456;13.328;2023-08-01T06:52:49;17.80;94.50
47576;DHT22;33304;52.456;13.328;2023-08-01T06:55:16;17.70;94.80
47576;DHT22;33304;52.456;13.328;2023-08-01T06:57:44;17.70;94.50
47576;DHT22;33304;52.456;13.328;2023-08-01T07:00:11;17.70;95.00
47576;DHT22;33304;52.456;13.328;2023-08-01T07:02:38;17.80;94.60
47576;DHT22;33304;52.456;13.328;2023-08-01T07:05:07;17.60;92.70
47576;DHT22;33304;52.456;13.328;2023-08-01T07:07:34;17.60;94.80
47576;DHT22;33304;52.456;13.328;2023-08-01T07:10:01;17.70;94.70
47576;DHT22;33304;52.456;13.328;2023-08-01T07:12:29;17.80;93.20
47576;DHT22;33304;52.456;13.328;2023-08-01T07:14:56;17.80;93.40
47576;DHT22;33304;52.456;13.328;2023-08-01T07:17:23;17.90;91.70
47576;DHT22;33304;52.456;13.328;2023-08-01T07:19:50;17.90;91.70
47576;DHT22;33304;52.456;13.328;2023-08-01T07:22:18;17.90;91.70
47576;DHT22;33304;52.456;13.328;2023-08-01T07:24:45;17.90;91.70
47576;DHT22;33304;52.456;13.328;2023-08-01T07:27:12;18.00;90.30
47576;DHT22;33304;52.456;13.328;2023-08-01T07:29:39;18.10;87.40
47576;DHT22;33304;52.456;13.328;2023-08-01T07:32:07;18.10;85.30
47576;DHT22;33304;52.456;13.328;2023-08-01T07:34:34;18.10;87.20
47576;DHT22;33304;52.456;13.328;2023-08-01T07:37:01;18.20;84.00
47576;DHT22;33304;52.456;13.328;2023-08-01T07:39:29;18.40;82.70
47576;DHT22;33304;52.456;13.328;2023-08-01T07:41:56;18.60;76.30
47576;DHT22;33304;52.456;13.328;2023-08-01T07:44:23;18.60;72.50
47576;DHT22;33304;52.456;13.328;2023-08-01T07:46:50;18.70;73.50
47576;DHT22;33304;52.456;13.328;2023-08-01T07:49:17;18.70;73.50
47576;DHT22;33304;52.456;13.328;2023-08-01T07:51:45;18.70;72.00
47576;DHT22;33304;52.456;13.328;2023-08-01T07:54:12;18.80;70.40
47576;DHT22;33304;52.456;13.328;2023-08-01T07:56:40;18.90;68.70
47576;DHT22;33304;52.456;13.328;2023-08-01T07:59:09;19.00;66.80
47576;DHT22;33304;52.456;13.328;2023-08-01T08:01:37;18.90;67.10
47576;DHT22;33304;52.456;13.328;2023-08-01T08:04:06;18.90;64.90
47576;DHT22;33304;52.456;13.328;2023-08-01T08:06:33;19.00;64.80
47576;DHT22;33304;52.456;13.328;2023-08-01T08:09:00;19.10;64.90
47576;DHT22;33304;52.456;13.328;2023-08-01T08:11:27;19.20;62.80
47576;DHT22;33304;52.456;13.328;2023-08-01T08:13:55;19.40;62.20
47576;DHT22;33304;52.456;13.328;2023-08-01T08:16:22;19.50;60.60
47576;DHT22;33304;52.456;13.328;2023-08-01T08:18:49;19.50;61.10
47576;DHT22;33304;52.456;13.328;2023-08-01T08:21:16;19.40;59.80
47576;DHT22;33304;52.456;13.328;2023-08-01T08:23:44;19.40;60.30
47576;DHT22;33304;52.456;13.328;2023-08-01T08:26:11;19.70;58.20
47576;DHT22;33304;52.456;13.328;2023-08-01T08:28:38;19.70;59.00
47576;DHT22;33304;52.456;13.328;2023-08-01T08:31:09;19.90;57.40
47576;DHT22;33304;52.456;13.328;2023-08-01T08:33:36;19.80;54.50
47576;DHT22;33304;52.456;13.328;2023-08-01T08:36:03;19.70;55.80
47576;DHT22;33304;52.456;13.328;2023-08-01T08:38:30;19.80;55.10
47576;DHT22;33304;52.456;13.328;2023-08-01T08:41:06;19.90;54.80
47576;DHT22;33304;52.456;13.328;2023-08-01T08:43:35;20.00;54.00
47576;DHT22;33304;52.456;13.328;2023-08-01T08:46:03;20.10;52.40
47576;DHT22;33304;52.456;13.328;2023-08-01T08:48:32;20.00;52.30
47576;DHT22;33304;52.456;13.328;2023-08-01T08:51:01;19.90;52.20
47576;DHT22;33304;52.456;13.328;2023-08-01T08:53:30;20.10;52.40
47576;DHT22;33304;52.456;13.328;2023-08-01T08:55:59;20.20;52.50
47576;DHT22;33304;52.456;13.328;2023-08-01T08:58:29;20.30;51.40
47576;DHT22;33304;52.456;13.328;2023-08-01T09:00:56;20.40;50.40
47576;DHT22;33304;52.456;13.328;2023-08-01T09:03:23;20.30;50.20
47576;DHT22;33304;52.456;13.328;2023-08-01T09:05:59;20.40;47.30
47576;DHT22;33304;52.456;13.328;2023-08-01T09:08:32;20.40;47.20
47576;DHT22;33304;52.456;13.328;2023-08-01T09:10:59;20.60;45.70
47576;DHT22;33304;52.456;13.328;2023-08-01T09:13:26;20.70;45.10
47576;DHT22;33304;52.456;13.328;2023-08-01T09:15:54;20.90;43.10
47576;DHT22;33304;52.456;13.328;2023-08-01T09:18:23;20.90;42.70
47576;DHT22;33304;52.456;13.328;2023-08-01T09:20:50;21.10;41.70
47576;DHT22;33304;52.456;13.328;2023-08-01T09:23:18;21.00;40.80
47576;DHT22;33304;52.456;13.328;2023-08-01T09:25:45;21.00;40.80
47576;DHT22;33304;52.456;13.328;2023-08-01T09:28:17;21.00;39.30
47576;DHT22;33304;52.456;13.328;2023-08-01T09:30:48;20.80;39.80
47576;DHT22;33304;52.456;13.328;2023-08-01T09:33:15;20.70;39.20
47576;DHT22;33304;52.456;13.328;2023-08-01T09:35:42;20.50;41.10
47576;DHT22;33304;52.456;13.328;2023-08-01T09:38:14;20.40;41.00
47576;DHT22;33304;52.456;13.328;2023-08-01T09:40:44;20.30;41.50
47576;DHT22;33304;52.456;13.328;2023-08-01T09:43:12;20.00;41.80
47576;DHT22;33304;52.456;13.328;2023-08-01T09:45:49;20.00;42.70
47576;DHT22;33304;52.456;13.328;2023-08-01T09:48:22;20.10;41.80
47576;DHT22;33304;52.456;13.328;2023-08-01T09:50:50;20.30;41.70
47576;DHT22;33304;52.456;13.328;2023-08-01T09:53:17;20.30;41.00
47576;DHT22;33304;52.456;13.328;2023-08-01T09:55:46;20.50;40.60
47576;DHT22;33304;52.456;13.328;2023-08-01T09:58:17;20.60;40.50
47576;DHT22;33304;52.456;13.328;2023-08-01T10:00:48;20.50;41.80
47576;DHT22;33304;52.456;13.328;2023-08-01T10:03:17;20.40;41.00
47576;DHT22;33304;52.456;13.328;2023-08-01T10:05:45;20.20;41.40
47576;DHT22;33304;52.456;13.328;2023-08-01T10:08:13;20.20;41.80
47576;DHT22;33304;52.456;13.328;2023-08-01T10:10:41;20.10;43.00
47576;DHT22;33304;52.456;13.328;2023-08-01T10:13:13;20.10;42.90
47576;DHT22;33304;52.456;13.328;2023-08-01T10:15:40;20.00;42.50
47576;DHT22;33304;52.456;13.328;2023-08-01T10:18:09;20.00;42.60
47576;DHT22;33304;52.456;13.328;2023-08-01T10:20:37;19.90;43.80
47576;DHT22;33304;52.456;13.328;2023-08-01T10:23:05;19.90;44.30
47576;DHT22;33304;52.456;13.328;2023-08-01T10:25:32;19.90;44.00
47576;DHT22;33304;52.456;13.328;2023-08-01T10:28:00;20.00;44.50
47576;DHT22;33304;52.456;13.328;2023-08-01T10:30:29;20.00;44.20
47576;DHT22;33304;52.456;13.328;2023-08-01T10:32:58;20.00;44.30
47576;DHT22;33304;52.456;13.328;2023-08-01T10:35:32;20.00;44.20
47576;DHT22;33304;52.456;13.328;2023-08-01T10:38:04;19.90;44.40
47576;DHT22;33304;52.456;13.328;2023-08-01T10:40:39;20.10;44.00
47576;DHT22;33304;52.456;13.328;2023-08-01T10:43:19;19.70;45.70
47576;DHT22;33304;52.456;13.328;2023-08-01T10:45:47;19.40;56.50
47576;DHT22;33304;52.456;13.328;2023-08-01T10:48:14;18.70;69.50
47576;DHT22;33304;52.456;13.328;2023-08-01T10:50:41;18.40;87.30
47576;DHT22;33304;52.456;13.328;2023-08-01T10:53:09;18.20;93.00
47576;DHT22;33304;52.456;13.328;2023-08-01T10:55:41;18.20;99.90
47576;DHT22;33304;52.456;13.328;2023-08-01T10:58:08;18.00;99.90
47576;DHT22;33304;52.456;13.328;2023-08-01T11:00:35;18.00;99.90
47576;DHT22;33304;52.456;13.328;2023-08-01T11:03:04;18.10;99.90
47576;DHT22;33304;52.456;13.328;2023-08-01T11:05:31;18.10;99.90
47576;DHT22;33304;52.456;13.328;2023-08-01T11:07:59;18.10;99.90
47576;DHT22;33304;52.456;13.328;2023-08-01T11:10:28;18.10;99.90
47576;DHT22;33304;52.456;13.328;2023-08-01T11:12:55;18.00;99.90
47576;DHT22;33304;52.456;13.328;2023-08-01T11:15:23;18.00;99.90
47576;DHT22;33304;52.456;13.328;2023-08-01T11:17:52;17.90;99.90
47576;DHT22;33304;52.456;13.328;2023-08-01T11:20:22;17.90;99.90
47576;DHT22;33304;52.456;13.328;2023-08-01T11:22:52;17.90;99.90
47576;DHT22;33304;52.456;13.328;2023-08-01T11:25:20;18.00;99.90
47576;DHT22;33304;52.456;13.328;2023-08-01T11:27:47;18.10;99.90
47576;DHT22;33304;52.456;13.328;2023-08-01T11:30:14;18.00;97.80
47576;DHT22;33304;52.456;13.328;2023-08-01T11:32:41;18.00;96.70
47576;DHT22;33304;52.456;13.328;2023-08-01T11:35:08;18.20;95.50
47576;DHT22;33304;52.456;13.328;2023-08-01T11:37:37;18.20;85.40
47576;DHT22;33304;52.456;13.328;2023-08-01T11:40:05;18.10;83.60
47576;DHT22;33304;52.456;13.328;2023-08-01T11:42:33;18.20;77.70
47576;DHT22;33304;52.456;13.328;2023-08-01T11:45:08;18.20;80.60
47576;DHT22;33304;52.456;13.328;2023-08-01T11:47:35;18.20;78.00
47576;DHT22;33304;52.456;13.328;2023-08-01T11:50:03;18.20;78.20
47576;DHT22;33304;52.456;13.328;2023-08-01T11:52:30;18.30;73.10
47576;DHT22;33304;52.456;13.328;2023-08-01T11:54:59;18.00;72.80
47576;DHT22;33304;52.456;13.328;2023-08-01T11:57:26;17.90;76.10
47576;DHT22;33304;52.456;13.328;2023-08-01T11:59:55;18.00;86.60
47576;DHT22;33304;52.456;13.328;2023-08-01T12:02:23;18.10;79.10
47576;DHT22;33304;52.456;13.328;2023-08-01T12:04:50;18.40;78.30
47576;DHT22;33304;52.456;13.328;2023-08-01T12:07:18;18.70;77.00
47576;DHT22;33304;52.456;13.328;2023-08-01T12:09:55;19.00;72.20
47576;DHT22;33304;52.456;13.328;2023-08-01T12:12:26;19.10;73.60
47576;DHT22;33304;52.456;13.328;2023-08-01T12:14:54;19.40;71.30
47576;DHT22;33304;52.456;13.328;2023-08-01T12:17:22;19.50;63.10
47576;DHT22;33304;52.456;13.328;2023-08-01T12:19:49;19.60;58.90
47576;DHT22;33304;52.456;13.328;2023-08-01T12:22:16;19.40;55.30
47576;DHT22;33304;52.456;13.328;2023-08-01T12:24:43;19.50;55.00
47576;DHT22;33304;52.456;13.328;2023-08-01T12:27:10;19.40;52.30
47576;DHT22;33304;52.456;13.328;2023-08-01T12:29:39;19.40;53.60
47576;DHT22;33304;52.456;13.328;2023-08-01T12:32:06;19.70;53.90
47576;DHT22;33304;52.456;13.328;2023-08-01T12:34:34;19.90;52.20
47576;DHT22;33304;52.456;13.328;2023-08-01T12:37:01;20.00;49.30
47576;DHT22;33304;52.456;13.328;2023-08-01T12:39:28;20.20;45.30
47576;DHT22;33304;52.456;13.328;2023-08-01T12:41:54;20.60;45.40
47576;DHT22;33304;52.456;13.328;2023-08-01T12:44:22;20.70;41.30
47576;DHT22;33304;52.456;13.328;2023-08-01T12:46:50;20.80;43.20
47576;DHT22;33304;52.456;13.328;2023-08-01T12:49:18;20.80;41.40
47576;DHT22;33304;52.456;13.328;2023-08-01T12:51:45;20.80;43.20
47576;DHT22;33304;52.456;13.328;2023-08-01T12:54:12;20.70;41.30
47576;DHT22;33304;52.456;13.328;2023-08-01T12:56:40;20.70;41.30
47576;DHT22;33304;52.456;13.328;2023-08-01T12:59:07;20.60;41.20
47576;DHT22;33304;52.456;13.328;2023-08-01T13:01:34;20.50;41.10
47576;DHT22;33304;52.456;13.328;2023-08-01T13:04:03;20.60;40.20
47576;DHT22;33304;52.456;13.328;2023-08-01T13:06:31;21.00;41.60
47576;DHT22;33304;52.456;13.328;2023-08-01T13:08:58;21.90;38.40
47576;DHT22;33304;52.456;13.328;2023-08-01T13:11:25;22.00;34.20
47576;DHT22;33304;52.456;13.328;2023-08-01T13:13:52;21.90;32.40
47576;DHT22;33304;52.456;13.328;2023-08-01T13:16:19;22.00;33.30
47576;DHT22;33304;52.456;13.328;2023-08-01T13:18:46;22.30;34.00
47576;DHT22;33304;52.456;13.328;2023-08-01T13:21:15;23.10;29.80
47576;DHT22;33304;52.456;13.328;2023-08-01T13:23:42;23.10;29.50
47576;DHT22;33304;52.456;13.328;2023-08-01T13:26:09;23.50;28.40
47576;DHT22;33304;52.456;13.328;2023-08-01T13:28:36;23.60;28.00
47576;DHT22;33304;52.456;13.328;2023-08-01T13:31:04;24.00;27.30
47576;DHT22;33304;52.456;13.328;2023-08-01T13:33:31;24.00;26.90
47576;DHT22;33304;52.456;13.328;2023-08-01T13:35:58;23.50;28.20
47576;DHT22;33304;52.456;13.328;2023-08-01T13:38:26;23.30;28.40
47576;DHT22;33304;52.456;13.328;2023-08-01T13:40:53;23.40;27.20
47576;DHT22;33304;52.456;13.328;2023-08-01T13:43:20;24.00;26.50
47576;DHT22;33304;52.456;13.328;2023-08-01T13:45:47;24.40;25.90
47576;DHT22;33304;52.456;13.328;2023-08-01T13:48:14;24.30;23.00
47576;DHT22;33304;52.456;13.328;2023-08-01T13:50:41;23.60;25.20
47576;DHT22;33304;52.456;13.328;2023-08-01T13:53:08;23.20;26.10
47576;DHT22;33304;52.456;13.328;2023-08-01T13:55:39;24.40;24.50
47576;DHT22;33304;52.456;13.328;2023-08-01T13:58:06;25.30;23.00
47576;DHT22;33304;52.456;13.328;2023-08-01T14:00:33;25.20;23.00
47576;DHT22;33304;52.456;13.328;2023-08-01T14:03:00;24.60;21.90
47576;DHT22;33304;52.456;13.328;2023-08-01T14:05:28;24.20;23.50
47576;DHT22;33304;52.456;13.328;2023-08-01T14:07:55;24.10;23.50
47576;DHT22;33304;52.456;13.328;2023-08-01T14:10:22;24.60;22.60
47576;DHT22;33304;52.456;13.328;2023-08-01T14:12:51;24.60;22.40
47576;DHT22;33304;52.456;13.328;2023-08-01T14:15:18;24.30;22.40
47576;DHT22;33304;52.456;13.328;2023-08-01T14:17:45;25.10;20.70
47576;DHT22;33304;52.456;13.328;2023-08-01T14:20:12;25.80;18.80
47576;DHT22;33304;52.456;13.328;2023-08-01T14:22:41;26.40;17.00
47576;DHT22;33304;52.456;13.328;2023-08-01T14:25:08;26.20;17.30
47576;DHT22;33304;52.456;13.328;2023-08-01T14:27:35;25.20;17.10
47576;DHT22;33304;52.456;13.328;2023-08-01T14:30:05;24.60;18.60
47576;DHT22;33304;52.456;13.328;2023-08-01T14:32:33;24.70;17.70
47576;DHT22;33304;52.456;13.328;2023-08-01T14:35:00;25.60;17.30
47576;DHT22;33304;52.456;13.328;2023-08-01T14:37:27;26.20;14.50
47576;DHT22;33304;52.456;13.328;2023-08-01T14:39:55;26.70;14.20
47576;DHT22;33304;52.456;13.328;2023-08-01T14:42:22;27.00;13.90
47576;DHT22;33304;52.456;13.328;2023-08-01T14:44:52;27.20;13.00
47576;DHT22;33304;52.456;13.328;2023-08-01T14:47:21;27.50;12.90
47576;DHT22;33304;52.456;13.328;2023-08-01T14:49:48;27.80;12.70
47576;DHT22;33304;52.456;13.328;2023-08-01T14:52:15;27.90;12.30
47576;DHT22;33304;52.456;13.328;2023-08-01T14:54:42;28.20;12.40
47576;DHT22;33304;52.456;13.328;2023-08-01T14:57:09;27.20;12.30
47576;DHT22;33304;52.456;13.328;2023-08-01T14:59:37;25.70;13.20
47576;DHT22;33304;52.456;13.328;2023-08-01T15:02:04;24.90;16.20
47576;DHT22;33304;52.456;13.328;2023-08-01T15:04:33;24.20;17.90
47576;DHT22;33304;52.456;13.328;2023-08-01T15:07:01;24.00;19.20
47576;DHT22;33304;52.456;13.328;2023-08-01T15:09:29;23.70;19.50
47576;DHT22;33304;52.456;13.328;2023-08-01T15:11:57;23.50;21.40
47576;DHT22;33304;52.456;13.328;2023-08-01T15:14:24;23.40;21.70
47576;DHT22;33304;52.456;13.328;2023-08-01T15:16:51;23.30;21.70
47576;DHT22;33304;52.456;13.328;2023-08-01T15:19:18;22.60;31.00